createdAt,value
2018-05-15T00:00:26.846Z,0.00
2018-05-15T00:01:26.772Z,0.00
2018-05-15T00:02:26.697Z,0.00
2018-05-15T00:03:26.623Z,0.00
2018-05-15T00:04:26.551Z,0.00
2018-05-15T00:05:26.472Z,0.00
2018-05-15T00:06:26.398Z,0.00
2018-05-15T00:07:26.327Z,0.00
2018-05-15T00:08:26.249Z,0.00
2018-05-15T00:09:26.173Z,0.00
2018-05-15T00:10:26.099Z,0.00
2018-05-15T00:11:26.026Z,0.00
2018-05-15T00:12:25.948Z,0.00
2018-05-15T00:13:25.875Z,0.00
2018-05-15T00:14:25.798Z,0.00
2018-05-15T00:15:25.723Z,0.00
2018-05-15T00:16:25.649Z,0.00
2018-05-15T00:17:25.573Z,0.00
2018-05-15T00:18:25.498Z,0.00
2018-05-15T00:19:25.442Z,0.00
2018-05-15T00:20:25.348Z,0.00
2018-05-15T00:21:25.272Z,0.00
2018-05-15T00:22:25.197Z,0.00
2018-05-15T00:23:25.122Z,0.00
2018-05-15T00:24:25.047Z,0.00
2018-05-15T00:25:24.974Z,0.00
2018-05-15T00:26:24.897Z,0.00
2018-05-15T00:27:24.822Z,0.00
2018-05-15T00:28:24.747Z,0.00
2018-05-15T00:29:24.671Z,0.00
2018-05-15T00:30:24.596Z,0.00
2018-05-15T00:31:24.521Z,0.00
2018-05-15T00:32:24.448Z,0.00
2018-05-15T00:33:24.370Z,0.00
2018-05-15T00:34:24.296Z,0.00
2018-05-15T00:35:24.221Z,0.00
2018-05-15T00:36:24.146Z,0.00
2018-05-15T00:37:24.069Z,0.00
2018-05-15T00:38:23.994Z,0.00
2018-05-15T00:39:23.919Z,0.00
2018-05-15T00:40:23.844Z,0.00
2018-05-15T00:41:23.768Z,0.00
2018-05-15T00:42:23.693Z,0.00
2018-05-15T00:43:23.619Z,0.00
2018-05-15T00:44:23.544Z,0.00
2018-05-15T00:45:23.467Z,0.00
2018-05-15T00:46:23.392Z,0.00
2018-05-15T00:47:23.317Z,0.00
2018-05-15T00:48:23.242Z,0.00
2018-05-15T00:49:23.166Z,0.00
2018-05-15T00:50:23.091Z,0.00
2018-05-15T00:51:23.017Z,0.00
2018-05-15T00:52:22.939Z,0.00
2018-05-15T00:53:22.866Z,0.00
2018-05-15T00:54:22.787Z,0.00
2018-05-15T00:55:22.715Z,0.00
2018-05-15T00:56:22.989Z,0.00
2018-05-15T00:57:22.564Z,0.00
2018-05-15T00:58:22.490Z,0.00
2018-05-15T00:59:22.414Z,0.00
2018-05-15T01:00:22.337Z,0.00
2018-05-15T01:01:22.261Z,0.00
2018-05-15T01:02:22.186Z,0.00
2018-05-15T01:03:22.110Z,0.00
2018-05-15T01:04:22.035Z,0.00
2018-05-15T01:05:21.959Z,0.00
2018-05-15T01:06:21.884Z,0.00
2018-05-15T01:07:21.809Z,0.00
2018-05-15T01:08:21.733Z,0.00
2018-05-15T01:09:21.657Z,0.00
2018-05-15T01:10:21.582Z,0.00
2018-05-15T01:11:21.507Z,0.00
2018-05-15T01:12:21.431Z,0.00
2018-05-15T01:13:21.355Z,0.00
2018-05-15T01:14:21.284Z,0.00
2018-05-15T01:15:21.206Z,0.00
2018-05-15T01:16:21.129Z,0.00
2018-05-15T01:17:21.054Z,0.00
2018-05-15T01:18:20.978Z,0.00
2018-05-15T01:19:20.903Z,0.00
2018-05-15T01:20:20.828Z,0.00
2018-05-15T01:21:20.751Z,0.00
2018-05-15T01:22:20.677Z,0.00
2018-05-15T01:23:20.602Z,0.00
2018-05-15T01:24:20.526Z,0.00
2018-05-15T01:25:20.450Z,0.00
2018-05-15T01:26:20.374Z,0.00
2018-05-15T01:27:20.298Z,0.00
2018-05-15T01:28:20.224Z,0.00
2018-05-15T01:29:20.151Z,0.00
2018-05-15T01:30:20.073Z,0.00
2018-05-15T01:31:19.997Z,0.00
2018-05-15T01:32:19.922Z,0.00
2018-05-15T01:33:19.845Z,0.00
2018-05-15T01:34:19.770Z,0.00
2018-05-15T01:35:19.695Z,0.00
2018-05-15T01:36:19.619Z,0.00
2018-05-15T01:37:19.541Z,0.00
2018-05-15T01:38:19.468Z,0.00
2018-05-15T01:39:19.392Z,0.00
2018-05-15T01:40:19.319Z,0.00
2018-05-15T01:41:19.239Z,0.00
2018-05-15T01:42:19.164Z,0.00
2018-05-15T01:43:19.089Z,0.00
2018-05-15T01:44:19.013Z,0.00
2018-05-15T01:45:18.936Z,0.00
2018-05-15T01:46:18.862Z,0.00
2018-05-15T01:47:18.785Z,0.00
2018-05-15T01:48:18.710Z,0.00
2018-05-15T01:49:18.640Z,0.00
2018-05-15T01:50:18.559Z,0.00
2018-05-15T01:51:18.484Z,0.00
2018-05-15T01:52:18.408Z,0.00
2018-05-15T01:53:18.334Z,0.00
2018-05-15T01:54:18.256Z,0.00
2018-05-15T01:55:18.179Z,0.00
2018-05-15T01:56:18.109Z,0.00
2018-05-15T01:57:18.027Z,0.00
2018-05-15T01:58:17.951Z,0.00
2018-05-15T01:59:17.877Z,0.00
2018-05-15T02:00:17.805Z,0.00
2018-05-15T02:01:17.723Z,0.00
2018-05-15T02:02:17.647Z,0.00
2018-05-15T02:03:17.573Z,0.00
2018-05-15T02:04:17.496Z,0.00
2018-05-15T02:05:17.425Z,0.00
2018-05-15T02:06:17.344Z,0.00
2018-05-15T02:07:17.267Z,0.00
2018-05-15T02:08:17.192Z,0.00
2018-05-15T02:09:17.116Z,0.00
2018-05-15T02:10:17.039Z,0.00
2018-05-15T02:11:16.965Z,0.00
2018-05-15T02:12:16.888Z,0.00
2018-05-15T02:13:16.811Z,0.00
2018-05-15T02:14:16.737Z,0.00
2018-05-15T02:15:16.660Z,0.00
2018-05-15T02:16:16.588Z,0.00
2018-05-15T02:17:16.509Z,0.00
2018-05-15T02:18:16.432Z,0.00
2018-05-15T02:19:16.356Z,0.00
2018-05-15T02:20:16.283Z,0.00
2018-05-15T02:21:16.204Z,0.00
2018-05-15T02:22:16.127Z,0.00
2018-05-15T02:23:16.052Z,0.00
2018-05-15T02:24:15.975Z,0.00
2018-05-15T02:25:15.899Z,0.00
2018-05-15T02:26:15.823Z,0.00
2018-05-15T02:27:15.748Z,0.00
2018-05-15T02:28:15.672Z,0.00
2018-05-15T02:29:15.597Z,0.00
2018-05-15T02:30:15.520Z,0.00
2018-05-15T02:31:15.444Z,0.00
2018-05-15T02:32:15.368Z,0.00
2018-05-15T02:33:15.291Z,0.00
2018-05-15T02:34:15.214Z,0.00
2018-05-15T02:35:15.140Z,0.00
2018-05-15T02:36:15.063Z,0.00
2018-05-15T02:37:14.989Z,0.00
2018-05-15T02:38:14.911Z,0.00
2018-05-15T02:39:14.835Z,0.00
2018-05-15T02:40:14.758Z,0.00
2018-05-15T02:41:14.685Z,0.00
2018-05-15T02:42:14.605Z,0.00
2018-05-15T02:43:14.530Z,0.00
2018-05-15T02:44:14.453Z,0.00
2018-05-15T02:45:14.378Z,0.00
2018-05-15T02:46:14.303Z,0.00
2018-05-15T02:47:14.227Z,0.00
2018-05-15T02:48:14.152Z,0.00
2018-05-15T02:49:14.073Z,0.00
2018-05-15T02:50:13.997Z,0.00
2018-05-15T02:51:13.922Z,0.00
2018-05-15T02:52:13.844Z,0.00
2018-05-15T02:53:13.768Z,0.00
2018-05-15T02:54:13.692Z,0.00
2018-05-15T02:55:13.617Z,0.00
2018-05-15T02:56:13.539Z,0.00
2018-05-15T02:57:13.464Z,0.00
2018-05-15T02:58:13.390Z,0.00
2018-05-15T02:59:13.311Z,0.00
2018-05-15T03:00:13.234Z,0.00
2018-05-15T03:01:13.161Z,0.00
2018-05-15T03:02:13.082Z,0.00
2018-05-15T03:03:13.006Z,0.00
2018-05-15T03:04:12.930Z,0.00
2018-05-15T03:05:12.856Z,0.00
2018-05-15T03:06:12.777Z,0.00
2018-05-15T03:07:12.792Z,0.00
2018-05-15T03:08:12.625Z,0.00
2018-05-15T03:09:12.547Z,0.00
2018-05-15T03:10:12.472Z,0.00
2018-05-15T03:11:12.399Z,4.00
2018-05-15T03:12:12.321Z,4.00
2018-05-15T03:13:12.243Z,0.00
2018-05-15T03:14:12.167Z,4.00
2018-05-15T03:15:12.095Z,4.00
2018-05-15T03:16:12.016Z,4.00
2018-05-15T03:17:11.939Z,4.00
2018-05-15T03:18:11.863Z,8.00
2018-05-15T03:19:11.792Z,4.00
2018-05-15T03:20:11.861Z,8.00
2018-05-15T03:21:11.633Z,8.00
2018-05-15T03:22:11.556Z,8.00
2018-05-15T03:23:11.482Z,8.00
2018-05-15T03:24:11.407Z,12.00
2018-05-15T03:25:11.329Z,12.00
2018-05-15T03:26:11.259Z,16.00
2018-05-15T03:27:11.179Z,16.00
2018-05-15T03:28:11.102Z,20.00
2018-05-15T03:29:11.024Z,24.00
2018-05-15T03:30:10.949Z,24.00
2018-05-15T03:31:10.873Z,28.00
2018-05-15T03:32:10.797Z,32.00
2018-05-15T03:33:10.721Z,32.00
2018-05-15T03:34:10.644Z,40.00
2018-05-15T03:35:10.568Z,40.00
2018-05-15T03:36:10.492Z,48.00
2018-05-15T03:37:10.415Z,52.00
2018-05-15T03:38:10.339Z,56.00
2018-05-15T03:39:10.264Z,64.00
2018-05-15T03:40:10.268Z,72.00
2018-05-15T03:41:10.111Z,76.00
2018-05-15T03:42:10.035Z,84.00
2018-05-15T03:43:09.958Z,88.00
2018-05-15T03:44:09.883Z,96.00
2018-05-15T03:45:09.805Z,100.00
2018-05-15T03:46:09.730Z,104.00
2018-05-15T03:47:09.655Z,112.00
2018-05-15T03:48:09.580Z,116.00
2018-05-15T03:49:09.501Z,120.00
2018-05-15T03:50:09.429Z,128.00
2018-05-15T03:51:09.348Z,136.00
2018-05-15T03:52:09.273Z,140.00
2018-05-15T03:53:09.196Z,148.00
2018-05-15T03:54:09.121Z,156.00
2018-05-15T03:55:09.044Z,164.00
2018-05-15T03:56:08.968Z,172.00
2018-05-15T03:57:08.891Z,184.00
2018-05-15T03:58:08.819Z,192.00
2018-05-15T03:59:08.738Z,200.00
2018-05-15T04:00:08.662Z,212.00
2018-05-15T04:01:08.586Z,220.00
2018-05-15T04:02:08.509Z,228.00
2018-05-15T04:03:08.433Z,236.00
2018-05-15T04:04:08.358Z,248.00
2018-05-15T04:05:08.280Z,252.00
2018-05-15T04:06:08.204Z,264.00
2018-05-15T04:07:08.128Z,280.00
2018-05-15T04:08:08.055Z,292.00
2018-05-15T04:09:07.975Z,308.00
2018-05-15T04:10:07.899Z,328.00
2018-05-15T04:11:07.882Z,348.00
2018-05-15T04:12:07.747Z,368.00
2018-05-15T04:13:07.670Z,400.00
2018-05-15T04:14:07.594Z,424.00
2018-05-15T04:15:07.516Z,444.00
2018-05-15T04:16:07.441Z,456.00
2018-05-15T04:17:07.365Z,436.00
2018-05-15T04:18:07.289Z,424.00
2018-05-15T04:19:07.212Z,440.00
2018-05-15T04:20:07.137Z,464.00
2018-05-15T04:21:07.060Z,496.00
2018-05-15T04:22:06.983Z,544.00
2018-05-15T04:23:06.907Z,556.00
2018-05-15T04:24:06.832Z,556.00
2018-05-15T04:25:06.754Z,544.00
2018-05-15T04:26:06.686Z,540.00
2018-05-15T04:27:06.606Z,572.00
2018-05-15T04:28:06.550Z,608.00
2018-05-15T04:29:06.451Z,652.00
2018-05-15T04:30:06.373Z,712.00
2018-05-15T04:31:06.298Z,764.00
2018-05-15T04:32:06.222Z,784.00
2018-05-15T04:33:06.145Z,808.00
2018-05-15T04:34:06.069Z,800.00
2018-05-15T04:35:06.098Z,784.00
2018-05-15T04:36:05.922Z,776.00
2018-05-15T04:37:05.841Z,780.00
2018-05-15T04:38:05.765Z,780.00
2018-05-15T04:39:05.689Z,776.00
2018-05-15T04:40:05.613Z,768.00
2018-05-15T04:41:05.536Z,772.00
2018-05-15T04:42:05.461Z,764.00
2018-05-15T04:43:05.385Z,748.00
2018-05-15T04:44:05.309Z,732.00
2018-05-15T04:45:05.233Z,720.00
2018-05-15T04:46:05.156Z,712.00
2018-05-15T04:47:05.081Z,712.00
2018-05-15T04:48:05.006Z,716.00
2018-05-15T04:49:04.930Z,716.00
2018-05-15T04:50:04.853Z,716.00
2018-05-15T04:51:04.778Z,724.00
2018-05-15T04:52:04.702Z,768.00
2018-05-15T04:53:04.626Z,880.00
2018-05-15T04:54:04.551Z,976.00
2018-05-15T04:55:04.475Z,1136.00
2018-05-15T04:56:04.397Z,1156.00
2018-05-15T04:57:04.324Z,1112.00
2018-05-15T04:58:04.247Z,1084.00
2018-05-15T04:59:04.171Z,1120.00
2018-05-15T05:00:04.096Z,1176.00
2018-05-15T05:01:04.019Z,1220.00
2018-05-15T05:02:03.986Z,1240.00
2018-05-15T05:03:03.870Z,1192.00
2018-05-15T05:04:03.794Z,1096.00
2018-05-15T05:05:03.717Z,1032.00
2018-05-15T05:06:03.642Z,1000.00
2018-05-15T05:07:03.566Z,948.00
2018-05-15T05:08:03.492Z,940.00
2018-05-15T05:09:03.415Z,996.00
2018-05-15T05:10:03.344Z,1040.00
2018-05-15T05:11:03.265Z,968.00
2018-05-15T05:12:03.189Z,864.00
2018-05-15T05:13:03.118Z,792.00
2018-05-15T05:14:03.038Z,752.00
2018-05-15T05:15:02.964Z,740.00
2018-05-15T05:16:02.888Z,744.00
2018-05-15T05:17:02.813Z,752.00
2018-05-15T05:18:02.786Z,816.00
2018-05-15T05:19:02.662Z,896.00
2018-05-15T05:20:02.588Z,944.00
2018-05-15T05:21:02.539Z,952.00
2018-05-15T05:22:02.438Z,936.00
2018-05-15T05:23:02.361Z,924.00
2018-05-15T05:24:02.285Z,964.00
2018-05-15T05:25:02.211Z,1064.00
2018-05-15T05:26:02.134Z,1168.00
2018-05-15T05:27:02.133Z,1268.00
2018-05-15T05:28:01.985Z,1332.00
2018-05-15T05:29:01.909Z,1348.00
2018-05-15T05:30:01.834Z,1340.00
2018-05-15T05:31:01.760Z,1372.00
2018-05-15T05:32:01.684Z,1424.00
2018-05-15T05:33:01.617Z,1444.00
2018-05-15T05:34:01.535Z,1456.00
2018-05-15T05:35:01.461Z,1520.00
2018-05-15T05:36:01.390Z,1640.00
2018-05-15T05:37:01.311Z,1792.00
2018-05-15T05:38:01.234Z,1916.00
2018-05-15T05:39:01.162Z,1956.00
2018-05-15T05:40:01.117Z,1972.00
2018-05-15T05:41:01.010Z,1964.00
2018-05-15T05:42:00.939Z,1948.00
2018-05-15T05:43:00.861Z,1892.00
2018-05-15T05:44:00.786Z,1812.00
2018-05-15T05:45:00.710Z,1840.00
2018-05-15T05:46:00.636Z,1936.00
2018-05-15T05:47:00.564Z,2084.00
2018-05-15T05:48:00.488Z,2152.00
2018-05-15T05:49:00.414Z,2036.00
2018-05-15T05:50:00.340Z,1872.00
2018-05-15T05:51:00.266Z,1776.00
2018-05-15T05:52:00.276Z,1756.00
2018-05-15T05:53:00.117Z,1708.00
2018-05-15T05:54:00.043Z,1628.00
2018-05-15T05:54:59.970Z,1552.00
2018-05-15T05:55:59.895Z,1548.00
2018-05-15T05:56:59.820Z,1636.00
2018-05-15T05:57:59.746Z,1720.00
2018-05-15T05:58:59.674Z,1800.00
2018-05-15T05:59:59.599Z,1924.00
2018-05-15T06:00:59.522Z,2048.00
2018-05-15T06:01:59.449Z,2148.00
2018-05-15T06:02:59.375Z,2220.00
2018-05-15T06:03:59.301Z,2344.00
2018-05-15T06:04:59.226Z,2512.00
2018-05-15T06:05:59.151Z,2640.00
2018-05-15T06:06:59.077Z,2816.00
2018-05-15T06:07:59.006Z,3040.00
2018-05-15T06:08:58.929Z,3196.00
2018-05-15T06:09:58.855Z,3184.00
2018-05-15T06:10:58.782Z,3124.00
2018-05-15T06:11:58.708Z,2996.00
2018-05-15T06:12:58.633Z,2788.00
2018-05-15T06:13:58.559Z,2604.00
2018-05-15T06:14:58.485Z,2444.00
2018-05-15T06:15:58.412Z,2280.00
2018-05-15T06:16:58.337Z,2124.00
2018-05-15T06:17:58.264Z,2064.00
2018-05-15T06:18:58.196Z,2116.00
2018-05-15T06:19:58.116Z,2208.00
2018-05-15T06:20:58.123Z,2320.00
2018-05-15T06:21:57.968Z,2432.00
2018-05-15T06:22:57.893Z,2460.00
2018-05-15T06:23:57.822Z,2480.00
2018-05-15T06:24:57.746Z,2560.00
2018-05-15T06:25:57.675Z,2740.00
2018-05-15T06:26:57.599Z,2940.00
2018-05-15T06:27:57.525Z,3120.00
2018-05-15T06:28:57.452Z,3156.00
2018-05-15T06:29:57.379Z,3132.00
2018-05-15T06:30:57.305Z,3092.00
2018-05-15T06:31:57.234Z,3120.00
2018-05-15T06:32:57.157Z,3140.00
2018-05-15T06:33:57.083Z,3184.00
2018-05-15T06:34:57.010Z,3204.00
2018-05-15T06:35:56.936Z,3188.00
2018-05-15T06:36:56.862Z,3140.00
2018-05-15T06:37:56.789Z,3136.00
2018-05-15T06:38:56.715Z,3164.00
2018-05-15T06:39:56.642Z,3216.00
2018-05-15T06:40:56.568Z,3320.00
2018-05-15T06:41:56.495Z,3500.00
2018-05-15T06:42:56.420Z,3692.00
2018-05-15T06:43:56.349Z,3872.00
2018-05-15T06:44:56.273Z,4080.00
2018-05-15T06:45:56.207Z,4304.00
2018-05-15T06:46:56.128Z,4508.00
2018-05-15T06:47:56.055Z,4664.00
2018-05-15T06:48:55.982Z,4752.00
2018-05-15T06:49:55.910Z,4756.00
2018-05-15T06:50:55.834Z,4756.00
2018-05-15T06:51:55.765Z,4740.00
2018-05-15T06:52:55.687Z,4700.00
2018-05-15T06:53:55.615Z,4648.00
2018-05-15T06:54:55.544Z,4568.00
2018-05-15T06:55:55.468Z,4508.00
2018-05-15T06:56:55.393Z,4452.00
2018-05-15T06:57:55.322Z,4444.00
2018-05-15T06:58:55.247Z,4496.00
2018-05-15T06:59:55.176Z,4500.00
2018-05-15T07:00:55.099Z,4412.00
2018-05-15T07:01:55.057Z,4284.00
2018-05-15T07:02:54.955Z,4116.00
2018-05-15T07:03:54.883Z,3980.00
2018-05-15T07:04:54.809Z,3860.00
2018-05-15T07:05:54.736Z,3768.00
2018-05-15T07:06:54.664Z,3680.00
2018-05-15T07:07:54.591Z,3580.00
2018-05-15T07:08:54.517Z,3492.00
2018-05-15T07:09:54.446Z,3444.00
2018-05-15T07:10:54.371Z,3420.00
2018-05-15T07:11:54.300Z,3432.00
2018-05-15T07:12:54.226Z,3448.00
2018-05-15T07:13:54.157Z,3476.00
2018-05-15T07:14:54.082Z,3548.00
2018-05-15T07:15:54.009Z,3640.00
2018-05-15T07:16:53.935Z,3704.00
2018-05-15T07:17:53.862Z,3796.00
2018-05-15T07:18:53.791Z,3876.00
2018-05-15T07:19:53.719Z,3988.00
2018-05-15T07:20:53.644Z,4060.00
2018-05-15T07:21:53.576Z,4120.00
2018-05-15T07:22:53.502Z,4248.00
2018-05-15T07:23:53.428Z,4400.00
2018-05-15T07:24:53.359Z,4540.00
2018-05-15T07:25:53.284Z,4672.00
2018-05-15T07:26:53.211Z,4844.00
2018-05-15T07:27:53.138Z,4932.00
2018-05-15T07:28:53.065Z,4944.00
2018-05-15T07:29:52.992Z,4936.00
2018-05-15T07:30:52.921Z,4912.00
2018-05-15T07:31:52.848Z,4788.00
2018-05-15T07:32:52.776Z,4756.00
2018-05-15T07:33:52.704Z,4692.00
2018-05-15T07:34:52.632Z,4624.00
2018-05-15T07:35:52.560Z,4532.00
2018-05-15T07:36:52.488Z,4496.00
2018-05-15T07:37:52.415Z,4392.00
2018-05-15T07:38:52.348Z,4384.00
2018-05-15T07:39:52.272Z,4384.00
2018-05-15T07:40:52.198Z,4380.00
2018-05-15T07:41:52.127Z,4468.00
2018-05-15T07:42:52.055Z,4596.00
2018-05-15T07:43:51.983Z,4712.00
2018-05-15T07:44:51.910Z,4820.00
2018-05-15T07:45:51.839Z,4840.00
2018-05-15T07:46:51.767Z,4880.00
2018-05-15T07:47:51.694Z,4784.00
2018-05-15T07:48:51.623Z,4768.00
2018-05-15T07:49:51.551Z,4856.00
2018-05-15T07:50:51.480Z,4944.00
2018-05-15T07:51:51.408Z,5036.00
2018-05-15T07:52:51.336Z,5040.00
2018-05-15T07:53:51.268Z,5072.00
2018-05-15T07:54:51.194Z,5024.00
2018-05-15T07:55:51.123Z,4872.00
2018-05-15T07:56:51.053Z,4712.00
2018-05-15T07:57:50.978Z,4620.00
2018-05-15T07:58:50.906Z,4572.00
2018-05-15T07:59:50.835Z,4424.00
2018-05-15T08:00:50.763Z,4272.00
2018-05-15T08:01:50.691Z,4260.00
2018-05-15T08:02:50.619Z,4336.00
2018-05-15T08:03:50.548Z,4396.00
2018-05-15T08:04:50.475Z,4540.00
2018-05-15T08:05:50.404Z,4616.00
2018-05-15T08:06:50.332Z,4812.00
2018-05-15T08:07:50.259Z,5104.00
2018-05-15T08:08:50.188Z,5476.00
2018-05-15T08:09:50.117Z,5832.00
2018-05-15T08:10:50.046Z,6108.00
2018-05-15T08:11:49.974Z,6436.00
2018-05-15T08:12:49.903Z,6624.00
2018-05-15T08:13:49.833Z,6860.00
2018-05-15T08:14:49.758Z,6980.00
2018-05-15T08:15:49.688Z,6884.00
2018-05-15T08:16:49.615Z,6632.00
2018-05-15T08:17:49.544Z,6484.00
2018-05-15T08:18:49.475Z,6252.00
2018-05-15T08:19:49.403Z,5964.00
2018-05-15T08:20:49.329Z,5532.00
2018-05-15T08:21:49.259Z,5152.00
2018-05-15T08:22:49.189Z,4876.00
2018-05-15T08:23:49.117Z,4632.00
2018-05-15T08:24:49.047Z,4292.00
2018-05-15T08:25:48.982Z,4016.00
2018-05-15T08:26:48.905Z,3728.00
2018-05-15T08:27:48.834Z,3488.00
2018-05-15T08:28:48.764Z,3204.00
2018-05-15T08:29:48.692Z,3168.00
2018-05-15T08:30:48.645Z,3032.00
2018-05-15T08:31:48.551Z,2988.00
2018-05-15T08:32:48.481Z,2980.00
2018-05-15T08:33:48.409Z,3060.00
2018-05-15T08:34:48.341Z,3160.00
2018-05-15T08:35:48.268Z,3256.00
2018-05-15T08:36:48.196Z,3248.00
2018-05-15T08:37:48.125Z,3248.00
2018-05-15T08:38:48.054Z,3200.00
2018-05-15T08:39:47.985Z,3148.00
2018-05-15T08:40:47.914Z,3080.00
2018-05-15T08:41:47.843Z,3044.00
2018-05-15T08:42:47.774Z,3044.00
2018-05-15T08:43:47.706Z,3056.00
2018-05-15T08:44:47.632Z,3084.00
2018-05-15T08:45:47.561Z,3048.00
2018-05-15T08:46:47.492Z,3056.00
2018-05-15T08:47:47.421Z,2984.00
2018-05-15T08:48:47.427Z,3020.00
2018-05-15T08:49:47.281Z,2912.00
2018-05-15T08:50:47.210Z,2896.00
2018-05-15T08:51:47.141Z,2976.00
2018-05-15T08:52:47.070Z,2912.00
2018-05-15T08:53:47.000Z,3024.00
2018-05-15T08:54:46.931Z,3052.00
2018-05-15T08:55:46.859Z,3076.00
2018-05-15T08:56:46.788Z,2668.00
2018-05-15T08:57:46.719Z,2844.00
2018-05-15T08:58:46.652Z,3424.00
2018-05-15T08:59:46.583Z,4384.00
2018-05-15T09:00:46.509Z,3424.00
2018-05-15T09:01:46.437Z,3608.00
2018-05-15T09:02:46.367Z,4004.00
2018-05-15T09:03:46.301Z,4164.00
2018-05-15T09:04:46.230Z,4248.00
2018-05-15T09:05:46.157Z,4132.00
2018-05-15T09:06:46.086Z,3880.00
2018-05-15T09:07:46.015Z,3528.00
2018-05-15T09:08:45.945Z,3220.00
2018-05-15T09:09:45.875Z,2932.00
2018-05-15T09:10:45.804Z,2752.00
2018-05-15T09:11:45.735Z,2600.00
2018-05-15T09:12:45.664Z,2656.00
2018-05-15T09:13:45.594Z,2852.00
2018-05-15T09:14:45.525Z,3140.00
2018-05-15T09:15:45.455Z,3464.00
2018-05-15T09:16:45.384Z,3412.00
2018-05-15T09:17:45.316Z,3564.00
2018-05-15T09:18:45.246Z,3720.00
2018-05-15T09:19:45.175Z,4440.00
2018-05-15T09:20:45.105Z,3928.00
2018-05-15T09:21:45.034Z,3540.00
2018-05-15T09:22:44.963Z,3796.00
2018-05-15T09:23:44.894Z,3620.00
2018-05-15T09:24:44.824Z,3548.00
2018-05-15T09:25:44.754Z,3420.00
2018-05-15T09:26:44.684Z,3668.00
2018-05-15T09:27:44.614Z,3868.00
2018-05-15T09:28:44.544Z,4088.00
2018-05-15T09:29:44.474Z,4248.00
2018-05-15T09:30:44.406Z,4548.00
2018-05-15T09:31:44.335Z,4968.00
2018-05-15T09:32:44.264Z,5364.00
2018-05-15T09:33:44.195Z,5784.00
2018-05-15T09:34:44.124Z,6196.00
2018-05-15T09:35:44.056Z,6528.00
2018-05-15T09:36:43.986Z,6984.00
2018-05-15T09:37:43.916Z,7364.00
2018-05-15T09:38:43.847Z,7244.00
2018-05-15T09:39:43.776Z,6872.00
2018-05-15T09:40:43.767Z,6352.00
2018-05-15T09:41:43.637Z,5800.00
2018-05-15T09:42:43.567Z,5256.00
2018-05-15T09:43:43.497Z,4768.00
2018-05-15T09:44:43.426Z,4048.00
2018-05-15T09:45:43.358Z,3764.00
2018-05-15T09:46:43.289Z,3740.00
2018-05-15T09:47:43.218Z,3668.00
2018-05-15T09:48:43.148Z,3612.00
2018-05-15T09:49:43.079Z,3184.00
2018-05-15T09:50:43.011Z,2780.00
2018-05-15T09:51:42.939Z,2712.00
2018-05-15T09:52:42.869Z,2956.00
2018-05-15T09:53:42.799Z,3500.00
2018-05-15T09:54:42.728Z,4224.00
2018-05-15T09:55:42.659Z,4552.00
2018-05-15T09:56:42.588Z,4308.00
2018-05-15T09:57:42.520Z,4156.00
2018-05-15T09:58:42.449Z,4032.00
2018-05-15T09:59:42.379Z,4068.00
2018-05-15T10:00:42.309Z,4496.00
2018-05-15T10:01:42.238Z,4456.00
2018-05-15T10:02:42.168Z,4428.00
2018-05-15T10:03:42.098Z,4404.00
2018-05-15T10:04:42.027Z,4476.00
2018-05-15T10:05:41.957Z,4012.00
2018-05-15T10:06:41.888Z,3968.00
2018-05-15T10:07:41.859Z,4640.00
2018-05-15T10:08:41.748Z,4812.00
2018-05-15T10:09:41.676Z,5004.00
2018-05-15T10:10:41.608Z,6848.00
2018-05-15T10:11:41.538Z,8264.00
2018-05-15T10:12:41.468Z,7780.00
2018-05-15T10:13:41.398Z,7348.00
2018-05-15T10:14:41.328Z,7608.00
2018-05-15T10:15:41.258Z,8012.00
2018-05-15T10:16:41.223Z,8016.00
2018-05-15T10:17:41.118Z,7452.00
2018-05-15T10:18:41.048Z,7512.00
2018-05-15T10:19:40.978Z,7624.00
2018-05-15T10:20:40.909Z,7448.00
2018-05-15T10:21:40.840Z,7244.00
2018-05-15T10:22:40.770Z,6564.00
2018-05-15T10:23:40.701Z,8312.00
2018-05-15T10:24:40.633Z,9820.00
2018-05-15T10:25:40.562Z,7620.00
2018-05-15T10:26:40.494Z,5316.00
2018-05-15T10:27:40.423Z,4656.00
2018-05-15T10:28:40.354Z,4860.00
2018-05-15T10:29:40.283Z,5788.00
2018-05-15T10:30:40.214Z,5732.00
2018-05-15T10:31:40.145Z,5512.00
2018-05-15T10:32:40.074Z,5760.00
2018-05-15T10:33:40.006Z,5852.00
2018-05-15T10:34:39.937Z,5668.00
2018-05-15T10:35:39.868Z,5688.00
2018-05-15T10:36:39.797Z,5980.00
2018-05-15T10:37:39.728Z,6272.00
2018-05-15T10:38:39.660Z,6304.00
2018-05-15T10:39:39.590Z,6348.00
2018-05-15T10:40:39.519Z,6072.00
2018-05-15T10:41:39.449Z,5704.00
2018-05-15T10:42:39.381Z,5324.00
2018-05-15T10:43:39.312Z,4992.00
2018-05-15T10:44:39.240Z,4820.00
2018-05-15T10:45:39.172Z,4744.00
2018-05-15T10:46:39.102Z,4768.00
2018-05-15T10:47:39.033Z,4952.00
2018-05-15T10:48:38.963Z,5976.00
2018-05-15T10:49:38.894Z,5880.00
2018-05-15T10:50:38.829Z,7380.00
2018-05-15T10:51:38.757Z,6364.00
2018-05-15T10:52:38.687Z,5304.00
2018-05-15T10:53:38.618Z,6068.00
2018-05-15T10:54:38.554Z,5892.00
2018-05-15T10:55:38.479Z,7968.00
2018-05-15T10:56:38.408Z,10072.00
2018-05-15T10:57:38.340Z,8624.00
2018-05-15T10:58:38.271Z,8248.00
2018-05-15T10:59:38.221Z,26976.00
2018-05-15T11:00:38.132Z,41536.00
2018-05-15T11:01:38.064Z,41376.00
2018-05-15T11:02:37.996Z,59200.00
2018-05-15T11:03:37.926Z,25664.00
2018-05-15T11:04:37.857Z,45504.00
2018-05-15T11:05:37.787Z,10568.00
2018-05-15T11:06:37.720Z,14268.00
2018-05-15T11:07:37.652Z,23840.00
2018-05-15T11:08:37.584Z,23424.00
2018-05-15T11:09:37.516Z,19040.00
2018-05-15T11:10:37.448Z,18080.00
2018-05-15T11:11:37.382Z,52864.00
2018-05-15T11:12:37.354Z,19360.00
2018-05-15T11:13:37.245Z,13984.00
2018-05-15T11:14:37.179Z,8904.00
2018-05-15T11:15:37.115Z,10380.00
2018-05-15T11:16:37.043Z,6280.00
2018-05-15T11:17:36.975Z,7908.00
2018-05-15T11:18:36.988Z,8588.00
2018-05-15T11:19:36.840Z,6880.00
2018-05-15T11:20:36.773Z,7208.00
2018-05-15T11:21:36.704Z,9136.00
2018-05-15T11:22:36.637Z,7588.00
2018-05-15T11:23:36.570Z,7448.00
2018-05-15T11:24:36.512Z,15952.00
2018-05-15T11:25:36.434Z,10100.00
2018-05-15T11:26:36.367Z,10960.00
2018-05-15T11:27:36.299Z,7664.00
2018-05-15T11:28:36.232Z,6300.00
2018-05-15T11:29:36.164Z,5236.00
2018-05-15T11:30:36.161Z,4832.00
2018-05-15T11:31:36.031Z,4884.00
2018-05-15T11:32:35.961Z,4960.00
2018-05-15T11:33:35.892Z,4516.00
2018-05-15T11:34:35.825Z,5772.00
2018-05-15T11:35:35.847Z,21312.00
2018-05-15T11:36:35.688Z,8040.00
2018-05-15T11:37:35.619Z,6660.00
2018-05-15T11:38:35.551Z,8044.00
2018-05-15T11:39:35.483Z,43584.00
2018-05-15T11:40:35.413Z,12292.00
2018-05-15T11:41:35.437Z,7920.00
2018-05-15T11:42:35.279Z,18912.00
2018-05-15T11:43:35.210Z,43776.00
2018-05-15T11:44:35.140Z,12268.00
2018-05-15T11:45:35.073Z,99552.00
2018-05-15T11:46:35.005Z,105312.00
2018-05-15T11:47:35.108Z,29824.00
2018-05-15T11:48:35.310Z,94304.00
2018-05-15T11:49:35.317Z,112512.00
2018-05-15T11:50:35.730Z,112672.00
2018-05-15T11:51:35.722Z,112256.00
2018-05-15T11:52:35.143Z,110656.00
2018-05-15T11:53:34.537Z,107872.00
2018-05-15T11:54:34.474Z,108896.00
2018-05-15T11:55:35.296Z,109984.00
2018-05-15T11:56:34.439Z,109120.00
2018-05-15T11:57:34.287Z,110080.00
2018-05-15T11:58:34.223Z,117824.00
2018-05-15T11:59:34.161Z,122880.00
2018-05-15T12:00:34.099Z,121472.00
2018-05-15T12:01:34.037Z,117184.00
2018-05-15T12:02:34.097Z,105888.00
2018-05-15T12:03:33.919Z,52928.00
2018-05-15T12:04:33.855Z,116032.00
2018-05-15T12:05:33.797Z,115072.00
2018-05-15T12:06:33.746Z,118400.00
2018-05-15T12:07:33.676Z,121312.00
2018-05-15T12:08:33.617Z,112512.00
2018-05-15T12:09:33.559Z,117568.00
2018-05-15T12:10:33.639Z,9084.00
2018-05-15T12:11:33.440Z,16800.00
2018-05-15T12:12:33.379Z,114240.00
2018-05-15T12:13:33.321Z,46688.00
2018-05-15T12:14:33.261Z,15000.00
2018-05-15T12:15:33.201Z,9592.00
2018-05-15T12:16:33.140Z,8632.00
2018-05-15T12:17:33.080Z,4852.00
2018-05-15T12:18:33.040Z,5132.00
2018-05-15T12:19:32.960Z,5436.00
2018-05-15T12:20:32.898Z,5452.00
2018-05-15T12:21:32.837Z,5068.00
2018-05-15T12:22:32.776Z,4944.00
2018-05-15T12:23:32.712Z,5012.00
2018-05-15T12:24:32.656Z,4756.00